Sutherland Springs, Texas
Current Conditions -  °F | °C
As of 12:23 PM on Sunday 21 Dec 2014 (Local Time) from KRND Reporting Station
Overcast Overcast  
Wind Chill: 12°   Ceiling: 700
Heat Index: 12°   Visibility: 8mi
Dew Point: 11°   Wind: 5mph
Humidity: 94%   Direction: 220°SW
Pressure: 30.04"   Gusts: NA
Location:  29.27°N, 98.06°W
Report Text: KRND 211823Z AUTO 22004KT 8SM OVC007 12/11 A3004 RMK AO2
Loading
Personal Weather Stations






























Interactive Weather Map New forecast layout! Learn more

10-Day Weather Forecast

Advertisements
Track Severe Weather on mobile